Time;durP1;ratioP1;P1;durP2;ratioP2;P2;SDS_P1;SDS_P2;PMS_P1;PMS_P2;Temp;Humidity;BMP_temperature;BMP_pressure;BME280_temperature;BME280_humidity;BME280_pressure;Samples;Min_cycle;Max_cycle;Signal;HPM_P1;HPM_P2
2023/07/19 00:00:37;;;;;;;;;;;;;;;21.84;48.13;100899.28;4966076;28;4150;-67
2023/07/19 00:03:04;;;;;;;;;;;;;;;21.86;48.18;100903.00;4966749;28;4056;-67
2023/07/19 00:05:30;;;;;;;;;;;;;;;21.83;48.08;100894.91;4968567;28;4231;-66
2023/07/19 00:07:57;;;;;;;;;;;;;;;21.83;47.83;100892.03;4972280;28;4331;-67
2023/07/19 00:10:23;;;;;;;;;;;;;;;21.83;48.13;100894.91;4966328;28;4047;-66
2023/07/19 00:12:50;;;;;;;;;;;;;;;21.81;48.33;100886.19;4968501;28;4402;-67
2023/07/19 00:15:22;;;;;;;;;;;;;;;21.80;48.18;100890.47;4968403;28;4196;-66
2023/07/19 00:17:49;;;;;;;;;;;;;;;21.81;48.23;100894.84;4967053;28;4563;-67
2023/07/19 00:20:15;;;;;;;;;;;;;;;21.80;48.24;100893.34;4968831;28;4318;-66
2023/07/19 00:22:42;;;;;;;;;;;;;;;21.80;48.04;100887.59;4964871;28;4262;-66
2023/07/19 00:25:08;;;;;;;;;;;;;;;21.78;48.30;100890.38;4968270;28;4346;-66
2023/07/19 00:27:34;;;;;;;;;;;;;;;21.76;48.33;100888.16;4968009;28;4187;-66
2023/07/19 00:30:01;;;;;;;;;;;;;;;21.74;48.37;100874.41;4969044;28;4104;-66
2023/07/19 00:32:29;;;;;;;;;;;;;;;21.75;48.46;100887.41;4971737;28;4149;-67
2023/07/19 00:34:55;;;;;;;;;;;;;;;21.73;48.17;100881.56;4968654;28;4065;-67
2023/07/19 00:37:22;;;;;;;;;;;;;;;21.70;48.41;100874.25;4971560;28;5500;-66
2023/07/19 00:39:48;;;;;;;;;;;;;;;21.71;48.42;100881.47;4980822;28;4584;-66
2023/07/19 00:42:14;;;;;;;;;;;;;;;21.68;48.70;100865.50;4971041;28;4000;-67
2023/07/19 00:44:41;;;;;;;;;;;;;;;21.67;48.82;100881.34;4968287;28;4137;-66
2023/07/19 00:47:07;;;;;;;;;;;;;;;21.70;48.57;100867.75;4969066;28;4249;-66
2023/07/19 00:49:34;;;;;;;;;;;;;;;21.70;48.58;100870.63;4967464;28;4144;-66
2023/07/19 00:52:01;;;;;;;;;;;;;;;21.65;48.91;100866.84;4968626;28;4232;-67
2023/07/19 00:54:27;;;;;;;;;;;;;;;21.67;48.85;100864.03;4967551;28;4222;-66
2023/07/19 00:56:54;;;;;;;;;;;;;;;21.67;48.91;100863.28;4975624;28;4115;-66
2023/07/19 00:59:20;;;;;;;;;;;;;;;21.65;49.12;100861.06;4981554;28;4149;-65
2023/07/19 01:01:47;;;;;;;;;;;;;;;21.63;49.18;100863.88;4979471;28;3953;-66
2023/07/19 01:04:13;;;;;;;;;;;;;;;21.64;48.73;100859.56;4966768;28;4561;-66
2023/07/19 01:06:40;;;;;;;;;;;;;;;21.65;48.88;100860.34;4967969;28;4675;-66
2023/07/19 01:09:06;;;;;;;;;;;;;;;21.65;48.75;100848.81;4982807;28;4260;-66
2023/07/19 01:11:33;;;;;;;;;;;;;;;21.63;49.05;100840.81;4964551;28;4387;-66
2023/07/19 01:13:59;;;;;;;;;;;;;;;21.63;48.75;100857.38;4965917;28;3993;-66
2023/07/19 01:16:25;;;;;;;;;;;;;;;21.60;49.00;100847.13;4965435;28;4236;-66
2023/07/19 01:18:52;;;;;;;;;;;;;;;21.61;48.97;100849.38;4964031;28;4176;-66
2023/07/19 01:21:18;;;;;;;;;;;;;;;21.59;48.68;100855.06;4967996;28;4590;-66
2023/07/19 01:23:50;;;;;;;;;;;;;;;21.57;48.91;100843.44;4964273;28;4240;-66
2023/07/19 01:26:17;;;;;;;;;;;;;;;21.54;49.07;100839.00;4980508;28;4237;-66
2023/07/19 01:28:44;;;;;;;;;;;;;;;21.57;48.81;100842.69;4955186;28;4116;-66
2023/07/19 01:31:10;;;;;;;;;;;;;;;21.55;48.62;100837.59;4965053;28;4212;-66
2023/07/19 01:33:37;;;;;;;;;;;;;;;21.53;48.78;100837.50;4965599;28;4076;-66
2023/07/19 01:36:04;;;;;;;;;;;;;;;21.53;48.93;100837.50;4969350;28;4047;-66
2023/07/19 01:38:30;;;;;;;;;;;;;;;21.51;48.70;100834.56;4966009;28;4194;-65
2023/07/19 01:40:57;;;;;;;;;;;;;;;21.50;48.98;100838.81;4974562;28;5188;-66
2023/07/19 01:43:23;;;;;;;;;;;;;;;21.50;48.87;100835.94;4964231;28;4057;-66
2023/07/19 01:45:51;;;;;;;;;;;;;;;21.51;48.98;100834.56;4964144;28;4465;-66
2023/07/19 01:48:18;;;;;;;;;;;;;;;21.50;48.68;100851.09;4962362;28;4164;-66
2023/07/19 01:50:47;;;;;;;;;;;;;;;21.48;48.90;100836.59;4966045;28;4187;-72
2023/07/19 01:53:14;;;;;;;;;;;;;;;21.49;48.59;100837.34;4966142;28;4156;-63
2023/07/19 01:55:41;;;;;;;;;;;;;;;21.44;48.62;100830.69;4969931;28;4176;-70
2023/07/19 01:58:07;;;;;;;;;;;;;;;21.47;48.98;100819.97;4979831;28;3966;-70
2023/07/19 02:00:34;;;;;;;;;;;;;;;21.48;48.65;100812.81;4966182;28;4338;-70
2023/07/19 02:03:00;;;;;;;;;;;;;;;21.47;48.82;100811.34;4965194;28;3973;-70
2023/07/19 02:05:27;;;;;;;;;;;;;;;21.44;48.90;100806.88;4967816;28;4510;-70
2023/07/19 02:07:54;;;;;;;;;;;;;;;21.42;48.82;100815.47;4965382;28;4126;-70
2023/07/19 02:10:20;;;;;;;;;;;;;;;21.42;48.93;100806.81;4965426;28;4330;-70
2023/07/19 02:12:47;;;;;;;;;;;;;;;21.43;48.81;100805.41;4966491;28;4148;-70
2023/07/19 02:15:13;;;;;;;;;;;;;;;21.40;48.73;100795.19;4971429;28;4228;-70
2023/07/19 02:17:39;;;;;;;;;;;;;;;21.42;48.68;100806.81;4968910;28;4120;-70
2023/07/19 02:20:06;;;;;;;;;;;;;;;21.39;48.99;100805.94;4966939;28;4028;-70
2023/07/19 02:22:33;;;;;;;;;;;;;;;21.38;48.73;100806.63;4973234;28;4455;-70
2023/07/19 02:25:01;;;;;;;;;;;;;;;21.37;48.87;100800.09;4979410;28;4045;-70
2023/07/19 02:27:31;;;;;;;;;;;;;;;21.38;49.02;100803.75;4966843;28;4492;-70
2023/07/19 02:30:00;;;;;;;;;;;;;;;21.38;48.90;100800.84;4965468;28;4222;-70
2023/07/19 02:32:26;;;;;;;;;;;;;;;21.33;49.03;100797.06;4967178;28;4396;-70
2023/07/19 02:34:53;;;;;;;;;;;;;;;21.34;49.25;100792.78;4969516;28;4236;-70
2023/07/19 02:37:19;;;;;;;;;;;;;;;21.36;49.15;100777.72;4966256;28;4185;-69
2023/07/19 02:39:46;;;;;;;;;;;;;;;21.34;49.24;100781.25;4966831;28;4059;-70
2023/07/19 02:42:12;;;;;;;;;;;;;;;21.36;49.24;100771.97;4963448;28;4049;-70
2023/07/19 02:44:39;;;;;;;;;;;;;;;21.36;48.99;100781.34;4964544;28;4228;-70
2023/07/19 02:47:07;;;;;;;;;;;;;;;21.31;49.18;100768.91;4962764;28;4269;-70
2023/07/19 02:49:33;;;;;;;;;;;;;;;21.31;49.20;100771.78;4964117;28;4656;-70
2023/07/19 02:52:00;;;;;;;;;;;;;;;21.32;49.41;100770.38;4962699;28;4264;-70
2023/07/19 02:54:26;;;;;;;;;;;;;;;21.32;49.46;100773.25;4975122;28;4255;-70
2023/07/19 02:56:53;;;;;;;;;;;;;;;21.30;49.71;100778.97;4967667;28;4202;-69
2023/07/19 02:59:19;;;;;;;;;;;;;;;21.26;49.94;100787.44;4995238;28;4272;-69
2023/07/19 03:01:46;;;;;;;;;;;;;;;21.27;50.00;100783.13;4962124;28;4194;-70
2023/07/19 03:04:12;;;;;;;;;;;;;;;21.25;49.80;100785.94;4954539;28;4056;-70
2023/07/19 03:06:38;;;;;;;;;;;;;;;21.28;50.01;100773.13;4962595;28;4118;-70
2023/07/19 03:09:06;;;;;;;;;;;;;;;21.27;50.05;100783.13;4964218;28;4082;-70
2023/07/19 03:11:32;;;;;;;;;;;;;;;21.28;50.13;100778.88;4967842;28;4117;-70
2023/07/19 03:13:59;;;;;;;;;;;;;;;21.28;50.25;100781.00;4967979;28;4044;-70
2023/07/19 03:16:25;;;;;;;;;;;;;;;21.27;50.46;100783.13;4984080;28;4343;-70
2023/07/19 03:18:52;;;;;;;;;;;;;;;21.26;50.41;100784.56;4968339;28;4226;-70
2023/07/19 03:21:20;;;;;;;;;;;;;;;21.24;50.55;100775.81;4963355;28;4209;-70
2023/07/19 03:23:47;;;;;;;;;;;;;;;21.22;50.54;100772.84;4962304;28;4055;-70
2023/07/19 03:26:13;;;;;;;;;;;;;;;21.07;51.46;100776.53;4964773;28;4550;-74
2023/07/19 03:28:40;;;;;;;;;;;;;;;20.44;53.73;100783.91;4967223;28;4618;-74
2023/07/19 03:31:10;;;;;;;;;;;;;;;20.17;54.55;100778.34;4962556;28;4200;-74
2023/07/19 03:33:36;;;;;;;;;;;;;;;19.79;55.70;100773.03;4975253;28;4269;-69
2023/07/19 03:36:03;;;;;;;;;;;;;;;20.22;54.53;100769.25;4963198;28;4092;-69
2023/07/19 03:38:31;;;;;;;;;;;;;;;20.60;53.71;100771.66;4972051;28;4524;-69
2023/07/19 03:41:05;;;;;;;;;;;;;;;20.78;52.99;100781.09;4971849;28;5536;-69
2023/07/19 03:43:31;;;;;;;;;;;;;;;20.87;52.73;100762.03;4965048;28;4462;-70
2023/07/19 03:45:58;;;;;;;;;;;;;;;20.90;52.81;100772.97;4975227;28;4204;-70
2023/07/19 03:48:24;;;;;;;;;;;;;;;20.94;52.90;100775.28;4985853;28;4724;-69
2023/07/19 03:50:55;;;;;;;;;;;;;;;20.97;52.83;100767.47;4985460;28;4459;-70
2023/07/19 03:53:22;;;;;;;;;;;;;;;20.96;52.93;100766.75;4980365;28;4089;-69
2023/07/19 03:55:53;;;;;;;;;;;;;;;20.98;52.73;100768.94;4985302;28;4144;-70
2023/07/19 03:58:20;;;;;;;;;;;;;;;20.99;52.99;100770.44;4983134;28;4412;-69
2023/07/19 04:00:47;;;;;;;;;;;;;;;21.00;52.83;100771.91;4984222;28;4490;-70
2023/07/19 04:03:13;;;;;;;;;;;;;;;21.02;52.91;100760.50;4948708;28;5270;-70
2023/07/19 04:05:39;;;;;;;;;;;;;;;21.05;52.97;100773.56;4972316;28;4228;-70
2023/07/19 04:08:06;;;;;;;;;;;;;;;21.04;53.21;100777.84;4978454;28;4804;-69
2023/07/19 04:10:32;;;;;;;;;;;;;;;21.06;53.18;100780.81;4971559;28;4162;-70
2023/07/19 04:12:59;;;;;;;;;;;;;;;21.07;53.36;100774.41;4965654;28;4262;-70
2023/07/19 04:15:25;;;;;;;;;;;;;;;21.07;53.46;100776.53;4969283;28;4213;-69
2023/07/19 04:17:51;;;;;;;;;;;;;;;21.08;53.58;100780.91;4984351;28;4508;-70
2023/07/19 04:20:18;;;;;;;;;;;;;;;21.08;53.73;100789.53;4969003;28;4091;-69
2023/07/19 04:22:45;;;;;;;;;;;;;;;21.08;53.69;100783.78;4970663;28;4115;-70
2023/07/19 04:25:11;;;;;;;;;;;;;;;21.07;53.88;100777.28;5005514;28;4076;-69
2023/07/19 04:27:38;;;;;;;;;;;;;;;21.08;53.93;100773.00;4982598;28;4330;-70
2023/07/19 04:30:04;;;;;;;;;;;;;;;21.08;54.16;100766.50;5001857;28;4093;-69
2023/07/19 04:32:31;;;;;;;;;;;;;;;21.08;54.26;100766.50;4976412;28;4084;-70
2023/07/19 04:34:58;;;;;;;;;;;;;;;21.08;54.45;100763.63;4967318;28;4219;-69
2023/07/19 04:37:24;;;;;;;;;;;;;;;21.06;54.28;100766.44;4997262;28;4533;-68
2023/07/19 04:39:51;;;;;;;;;;;;;;;21.12;54.02;100760.94;4972320;28;4158;-70
2023/07/19 04:42:18;;;;;;;;;;;;;;;21.12;54.30;100767.41;4982209;28;4117;-70
2023/07/19 04:44:45;;;;;;;;;;;;;;;21.15;54.08;100756.72;4973758;28;4185;-77
2023/07/19 04:47:12;;;;;;;;;;;;;;;20.50;57.37;100751.78;4970801;28;4164;-70
2023/07/19 04:49:39;;;;;;;;;;;;;;;20.63;57.01;100758.84;4966167;28;3988;-70
2023/07/19 04:52:05;;;;;;;;;;;;;;;20.84;56.49;100755.44;4979769;28;4189;-70
2023/07/19 04:54:32;;;;;;;;;;;;;;;21.13;55.42;100759.53;4964144;28;4293;-66
2023/07/19 04:56:59;;;;;;;;;;;;;;;21.30;54.95;100755.16;4967335;28;4187;-66
2023/07/19 04:59:26;;;;;;;;;;;;;;;21.44;54.47;100755.03;4984921;28;4163;-68
2023/07/19 05:01:52;;;;;;;;;;;;;;;21.45;54.25;100753.63;4965169;28;4141;-68
2023/07/19 05:04:19;;;;;;;;;;;;;;;21.48;53.97;100753.03;4965296;28;4047;-68
2023/07/19 05:06:45;;;;;;;;;;;;;;;21.51;54.23;100759.66;4966408;28;4287;-67
2023/07/19 05:09:12;;;;;;;;;;;;;;;21.52;53.75;100749.59;4967482;28;4149;-67
2023/07/19 05:11:39;;;;;;;;;;;;;;;21.53;53.66;100765.47;4985900;28;4154;-67
2023/07/19 05:14:06;;;;;;;;;;;;;;;21.54;53.76;100761.94;4965450;28;4132;-67
2023/07/19 05:16:33;;;;;;;;;;;;;;;21.56;53.41;100761.28;4971421;28;4088;-67
2023/07/19 05:18:59;;;;;;;;;;;;;;;21.56;53.19;100767.06;4979075;28;3936;-67
2023/07/19 05:21:26;;;;;;;;;;;;;;;21.57;53.33;100759.88;4971903;28;4083;-68
2023/07/19 05:23:53;;;;;;;;;;;;;;;21.58;53.22;100764.25;4986277;28;4214;-67
2023/07/19 05:26:19;;;;;;;;;;;;;;;21.58;53.25;100757.72;4971305;28;4160;-67
2023/07/19 05:28:46;;;;;;;;;;;;;;;21.59;53.13;100753.47;4968040;28;4014;-67
2023/07/19 05:31:12;;;;;;;;;;;;;;;21.61;52.82;100759.31;4973491;28;4338;-67
2023/07/19 05:33:40;;;;;;;;;;;;;;;21.60;52.73;100761.47;4970937;28;4610;-68
2023/07/19 05:36:06;;;;;;;;;;;;;;;21.62;52.93;100761.50;4966681;28;4174;-67
2023/07/19 05:38:32;;;;;;;;;;;;;;;21.61;52.78;100760.03;4967923;28;4342;-67
2023/07/19 05:40:59;;;;;;;;;;;;;;;21.62;52.49;100758.63;4968132;28;4088;-67
2023/07/19 05:43:26;;;;;;;;;;;;;;;21.63;52.45;100765.88;4968230;28;4308;-67
2023/07/19 05:45:52;;;;;;;;;;;;;;;21.63;52.43;100760.13;4974149;28;4327;-67
2023/07/19 05:48:19;;;;;;;;;;;;;;;21.64;52.53;100760.88;4967950;28;4124;-67
2023/07/19 05:50:45;;;;;;;;;;;;;;;21.66;52.61;100753.03;4969215;28;4041;-67
2023/07/19 05:53:13;;;;;;;;;;;;;;;21.66;52.51;100747.28;4969824;28;4120;-68
2023/07/19 05:55:39;;;;;;;;;;;;;;;21.67;52.19;100748.78;4970254;28;4103;-68
2023/07/19 05:58:05;;;;;;;;;;;;;;;21.67;52.36;100748.78;4969708;28;4121;-68
2023/07/19 06:00:32;;;;;;;;;;;;;;;21.69;52.17;100745.22;4968313;28;4009;-67
2023/07/19 06:02:58;;;;;;;;;;;;;;;21.69;52.11;100739.44;4966758;28;4189;-67
2023/07/19 06:05:25;;;;;;;;;;;;;;;21.69;52.07;100740.19;4966797;28;4417;-68
2023/07/19 06:07:51;;;;;;;;;;;;;;;21.70;52.24;100735.91;4969940;28;4498;-68
2023/07/19 06:10:18;;;;;;;;;;;;;;;21.71;52.10;100743.13;4966722;28;3941;-67
2023/07/19 06:12:45;;;;;;;;;;;;;;;21.72;52.23;100744.63;4968150;28;4121;-67
2023/07/19 06:15:11;;;;;;;;;;;;;;;21.73;52.08;100749.00;4969118;28;4324;-68
2023/07/19 06:17:40;;;;;;;;;;;;;;;21.73;52.03;100740.34;4969977;28;4150;-67
2023/07/19 06:20:07;;;;;;;;;;;;;;;21.73;51.93;100734.56;4967724;28;4140;-68
2023/07/19 06:22:33;;;;;;;;;;;;;;;21.74;52.09;100733.19;4976654;28;4070;-67
2023/07/19 06:25:00;;;;;;;;;;;;;;;21.75;51.82;100736.81;4969537;28;4143;-67
2023/07/19 06:27:26;;;;;;;;;;;;;;;21.75;51.78;100734.66;4967603;28;4317;-67
2023/07/19 06:29:53;;;;;;;;;;;;;;;21.75;51.84;100731.78;4972272;28;4126;-68
2023/07/19 06:32:19;;;;;;;;;;;;;;;21.77;51.87;100727.50;4971705;28;4109;-68
2023/07/19 06:34:46;;;;;;;;;;;;;;;21.77;51.83;100734.00;4972667;28;4117;-67
2023/07/19 06:37:12;;;;;;;;;;;;;;;21.77;51.76;100727.50;4985065;28;4146;-68
2023/07/19 06:39:39;;;;;;;;;;;;;;;21.78;51.39;100721.06;4968389;28;4040;-68
2023/07/19 06:42:05;;;;;;;;;;;;;;;21.79;51.36;100731.19;4971003;28;4150;-67
2023/07/19 06:44:32;;;;;;;;;;;;;;;21.79;51.40;100722.56;4965860;28;4337;-67
2023/07/19 06:47:01;;;;;;;;;;;;;;;21.80;51.48;100723.28;4970130;28;5107;-67
2023/07/19 06:49:27;;;;;;;;;;;;;;;21.81;51.52;100727.66;4970358;28;4120;-68
2023/07/19 06:51:53;;;;;;;;;;;;;;;21.82;51.60;100706.06;4969646;28;4232;-68
2023/07/19 06:54:20;;;;;;;;;;;;;;;21.82;51.44;100712.56;4974118;28;4168;-68
2023/07/19 06:56:46;;;;;;;;;;;;;;;21.83;51.32;100701.78;4968874;28;4486;-67
2023/07/19 06:59:13;;;;;;;;;;;;;;;21.86;51.31;100706.25;4972107;28;4109;-68
2023/07/19 07:01:40;;;;;;;;;;;;;;;21.84;51.29;100709.03;4969200;28;4380;-68
2023/07/19 07:04:09;;;;;;;;;;;;;;;21.85;51.42;100711.28;4971372;28;5245;-67
2023/07/19 07:06:36;;;;;;;;;;;;;;;21.85;51.26;100704.75;4969843;28;4467;-67
2023/07/19 07:09:03;;;;;;;;;;;;;;;21.85;51.37;100710.50;4968721;28;4506;-68
2023/07/19 07:11:29;;;;;;;;;;;;;;;21.87;51.35;100717.09;4971412;28;4325;-68
2023/07/19 07:13:55;;;;;;;;;;;;;;;21.88;50.93;100714.97;4973311;28;4234;-68
2023/07/19 07:16:22;;;;;;;;;;;;;;;21.88;51.26;100700.56;4969784;28;4169;-67
2023/07/19 07:18:48;;;;;;;;;;;;;;;21.88;51.25;100709.19;4972304;28;4004;-68
2023/07/19 07:21:15;;;;;;;;;;;;;;;21.90;50.89;100706.41;4967648;28;4411;-67
2023/07/19 07:23:41;;;;;;;;;;;;;;;21.89;51.12;100705.63;4972496;28;4089;-68
2023/07/19 07:26:08;;;;;;;;;;;;;;;21.90;51.03;100703.50;4972190;28;4518;-68
2023/07/19 07:28:34;;;;;;;;;;;;;;;21.91;51.17;100702.09;4968545;28;4527;-67
2023/07/19 07:31:06;;;;;;;;;;;;;;;21.91;51.26;100702.09;4969537;28;4183;-68
2023/07/19 07:33:32;;;;;;;;;;;;;;;21.91;50.81;100699.22;4971241;28;4000;-67
2023/07/19 07:35:59;;;;;;;;;;;;;;;21.91;51.27;100691.28;4966837;28;4229;-68
2023/07/19 07:38:25;;;;;;;;;;;;;;;21.93;50.90;100700.03;4966665;28;4114;-67
2023/07/19 07:40:51;;;;;;;;;;;;;;;21.93;50.98;100693.53;4971740;28;4102;-67
2023/07/19 07:43:18;;;;;;;;;;;;;;;21.93;51.09;100688.50;4982558;28;3986;-68
2023/07/19 07:45:44;;;;;;;;;;;;;;;21.94;50.98;100695.00;4971479;28;4015;-68
2023/07/19 07:48:11;;;;;;;;;;;;;;;21.94;50.77;100683.47;4968371;28;3951;-68
2023/07/19 07:50:37;;;;;;;;;;;;;;;21.94;50.85;100678.47;4970139;28;4064;-68
2023/07/19 07:53:04;;;;;;;;;;;;;;;21.95;51.06;100679.19;4984206;28;4151;-68
2023/07/19 07:55:38;;;;;;;;;;;;;;;21.95;51.04;100676.31;4970703;28;4632;-73
2023/07/19 07:58:05;;;;;;;;;;;;;;;21.95;51.02;100674.16;4973929;28;4168;-72
2023/07/19 08:00:31;;;;;;;;;;;;;;;21.96;50.98;100675.63;4972212;28;4481;-67
2023/07/19 08:02:58;;;;;;;;;;;;;;;21.97;50.77;100676.38;4971840;28;3993;-68
2023/07/19 08:05:24;;;;;;;;;;;;;;;21.97;50.86;100676.38;4975171;28;4191;-68
2023/07/19 08:07:51;;;;;;;;;;;;;;;21.97;50.86;100679.25;4974255;28;4923;-68
2023/07/19 08:10:17;;;;;;;;;;;;;;;21.99;50.91;100679.34;4972362;28;4028;-68
2023/07/19 08:12:44;;;;;;;;;;;;;;;21.99;50.93;100678.59;4972651;28;4031;-68
2023/07/19 08:15:10;;;;;;;;;;;;;;;22.00;50.79;100674.31;4975023;28;4069;-68
2023/07/19 08:17:37;;;;;;;;;;;;;;;21.99;50.77;100662.03;4975084;28;4031;-68
2023/07/19 08:20:05;;;;;;;;;;;;;;;22.00;50.55;100672.16;4971782;28;4092;-68
2023/07/19 08:22:33;;;;;;;;;;;;;;;22.00;50.52;100674.31;4975598;28;4065;-68
2023/07/19 08:25:00;;;;;;;;;;;;;;;22.00;50.72;100666.41;4974460;28;4513;-68
2023/07/19 08:27:46;;;;;;;;;;;;;;;22.00;50.60;100663.50;4976118;28;7931;-68
2023/07/19 08:30:15;;;;;;;;;;;;;;;22.01;50.82;100664.97;4992294;28;4593;-68
2023/07/19 08:32:42;;;;;;;;;;;;;;;22.02;50.47;100668.63;4989837;28;4224;-68
2023/07/19 08:35:09;;;;;;;;;;;;;;;22.01;50.32;100659.22;4974535;28;4468;-68
2023/07/19 08:37:35;;;;;;;;;;;;;;;22.02;50.42;100657.81;4977344;28;4237;-68
2023/07/19 08:40:02;;;;;;;;;;;;;;;22.02;50.67;100654.94;4975712;28;4227;-68
2023/07/19 08:42:28;;;;;;;;;;;;;;;22.03;50.64;100662.16;4976045;28;4048;-68
2023/07/19 08:44:54;;;;;;;;;;;;;;;22.03;50.41;100662.16;4975410;28;4190;-68
2023/07/19 08:47:21;;;;;;;;;;;;;;;22.02;50.64;100654.94;4970702;28;3935;-68
2023/07/19 08:49:47;;;;;;;;;;;;;;;22.04;50.75;100663.66;4979524;28;3925;-68
2023/07/19 08:52:14;;;;;;;;;;;;;;;22.04;50.65;100662.94;4986173;28;4136;-68
2023/07/19 08:54:40;;;;;;;;;;;;;;;22.05;50.70;100658.63;4969888;28;4122;-68
2023/07/19 08:57:07;;;;;;;;;;;;;;;22.05;50.38;100656.47;4971936;28;4564;-69
2023/07/19 08:59:33;;;;;;;;;;;;;;;22.04;50.78;100657.16;4972067;28;4028;-68
2023/07/19 09:01:59;;;;;;;;;;;;;;;22.06;50.68;100657.97;4985745;28;3912;-68
2023/07/19 09:04:26;;;;;;;;;;;;;;;22.06;50.37;100649.31;4970858;28;4416;-69
2023/07/19 09:06:53;;;;;;;;;;;;;;;22.05;50.38;100650.72;4970745;28;4172;-68
2023/07/19 09:09:19;;;;;;;;;;;;;;;22.07;50.60;100645.03;4969295;28;4716;-69
2023/07/19 09:11:46;;;;;;;;;;;;;;;22.07;50.56;100650.78;4967213;28;4170;-68
2023/07/19 09:14:12;;;;;;;;;;;;;;;22.07;50.63;100650.78;4971412;28;4302;-68
2023/07/19 09:16:39;;;;;;;;;;;;;;;22.08;50.59;100642.88;4973532;28;4050;-68
2023/07/19 09:19:05;;;;;;;;;;;;;;;22.08;50.39;100652.28;4974854;28;4113;-68
2023/07/19 09:21:42;;;;;;;;;;;;;;;22.08;50.35;100643.63;4984088;28;4162;-68
2023/07/19 09:24:08;;;;;;;;;;;;;;;22.09;50.71;100653.03;4969575;28;4177;-68
2023/07/19 09:26:47;;;;;;;;;;;;;;;22.09;50.66;100636.44;4984480;28;4098;-68
2023/07/19 09:29:13;;;;;;;;;;;;;;;22.10;50.53;100632.16;4970223;28;5448;-68
2023/07/19 09:31:50;;;;;;;;;;;;;;;22.10;50.41;100632.16;4972746;28;3983;-68
2023/07/19 09:34:16;;;;;;;;;;;;;;;22.10;50.47;100637.19;4967847;28;4571;-68
2023/07/19 09:36:43;;;;;;;;;;;;;;;22.11;50.34;100627.13;4968920;28;4345;-68
2023/07/19 09:39:09;;;;;;;;;;;;;;;22.11;50.26;100621.38;4985371;28;4357;-68
2023/07/19 09:41:36;;;;;;;;;;;;;;;22.12;50.50;100629.34;4965278;28;4213;-68
2023/07/19 09:44:07;;;;;;;;;;;;;;;22.12;50.62;100623.56;4983473;28;4201;-68
2023/07/19 09:46:33;;;;;;;;;;;;;;;22.12;50.32;100617.81;4972431;28;4435;-68
2023/07/19 09:49:00;;;;;;;;;;;;;;;22.12;50.54;100620.69;4988198;28;3995;-68
2023/07/19 09:51:26;;;;;;;;;;;;;;;22.12;50.23;100617.06;4966122;28;4209;-68
2023/07/19 09:53:53;;;;;;;;;;;;;;;22.13;50.22;100612.78;4985399;28;4529;-68
2023/07/19 09:56:19;;;;;;;;;;;;;;;22.14;50.31;100611.38;4982724;28;4033;-69
2023/07/19 09:58:46;;;;;;;;;;;;;;;22.14;50.53;100609.22;4972140;28;4137;-68
2023/07/19 10:01:13;;;;;;;;;;;;;;;22.13;50.31;100616.41;4982011;28;4082;-68
2023/07/19 10:03:39;;;;;;;;;;;;;;;22.14;50.32;100608.50;4971598;28;4299;-68
2023/07/19 10:06:06;;;;;;;;;;;;;;;22.14;50.21;100611.38;4967757;28;4177;-68
2023/07/19 10:08:33;;;;;;;;;;;;;;;22.14;50.28;100615.00;4967717;28;4241;-68
2023/07/19 10:11:00;;;;;;;;;;;;;;;22.15;50.27;100616.50;4971115;28;4076;-68
2023/07/19 10:13:30;;;;;;;;;;;;;;;22.16;50.40;100617.94;4968357;28;4333;-68
2023/07/19 10:15:56;;;;;;;;;;;;;;;22.16;50.21;100620.84;4973537;28;4053;-68
2023/07/19 10:18:24;;;;;;;;;;;;;;;22.16;50.19;100612.19;4968069;28;4241;-68
2023/07/19 10:21:00;;;;;;;;;;;;;;;22.16;50.23;100609.31;4968689;28;3922;-68
2023/07/19 10:23:30;;;;;;;;;;;;;;;22.17;50.14;100599.25;4976855;28;4094;-68
2023/07/19 10:25:57;;;;;;;;;;;;;;;22.17;50.19;100596.38;4970470;28;4179;-68
2023/07/19 10:28:29;;;;;;;;;;;;;;;22.18;50.60;100597.84;4972437;28;4110;-68
2023/07/19 10:30:56;;;;;;;;;;;;;;;22.18;50.47;100597.09;4972599;28;4017;-68
2023/07/19 10:33:30;;;;;;;;;;;;;;;22.18;50.41;100600.72;4966918;28;4089;-68
2023/07/19 10:35:58;;;;;;;;;;;;;;;22.18;50.34;100603.59;4972003;28;4195;-68
2023/07/19 10:38:25;;;;;;;;;;;;;;;22.20;50.16;100587.78;4970261;28;4186;-69
2023/07/19 10:40:58;;;;;;;;;;;;;;;22.20;50.28;100587.78;4970675;28;3980;-68
2023/07/19 10:43:25;;;;;;;;;;;;;;;22.20;50.22;100587.78;4971392;28;4250;-68
2023/07/19 10:46:12;;;;;;;;;;;;;;;22.20;50.34;100588.53;4974276;28;4132;-68
2023/07/19 10:48:39;;;;;;;;;;;;;;;22.22;50.15;100590.75;4968717;28;4325;-69
2023/07/19 10:51:08;;;;;;;;;;;;;;;22.22;50.19;100590.75;4968766;28;3907;-68
2023/07/19 10:53:41;;;;;;;;;;;;;;;22.21;50.14;100592.16;4970712;28;4159;-68
2023/07/19 10:56:07;;;;;;;;;;;;;;;22.21;50.19;100584.25;4971407;28;4502;-68
2023/07/19 10:58:34;;;;;;;;;;;;;;;22.22;50.13;100596.53;4969590;28;4517;-68
2023/07/19 11:01:00;;;;;;;;;;;;;;;22.21;50.32;100589.25;4970976;28;4187;-68
2023/07/19 11:03:27;;;;;;;;;;;;;;;22.22;50.17;100590.75;4966246;28;4467;-69
2023/07/19 11:05:53;;;;;;;;;;;;;;;22.23;50.41;100574.94;4968237;28;4403;-69
2023/07/19 11:08:23;;;;;;;;;;;;;;;22.23;50.12;100575.66;4969908;28;4150;-69
2023/07/19 11:10:49;;;;;;;;;;;;;;;22.24;50.29;100582.19;4970954;28;4132;-68
2023/07/19 11:13:16;;;;;;;;;;;;;;;22.23;50.51;100569.91;4985215;28;4028;-68
2023/07/19 11:15:46;;;;;;;;;;;;;;;22.25;50.28;100583.66;4984238;28;4098;-69
2023/07/19 11:18:12;;;;;;;;;;;;;;;22.26;50.30;100570.72;4970603;28;4316;-68
2023/07/19 11:20:39;;;;;;;;;;;;;;;22.25;50.45;100566.34;4970568;28;4502;-69
2023/07/19 11:23:05;;;;;;;;;;;;;;;22.25;50.36;100577.91;4989018;28;4107;-68
2023/07/19 11:25:32;;;;;;;;;;;;;;;22.25;50.07;100572.88;4972016;28;4298;-68
2023/07/19 11:27:58;;;;;;;;;;;;;;;22.25;50.10;100572.13;4972378;28;4164;-68
2023/07/19 11:30:35;;;;;;;;;;;;;;;22.26;50.38;100579.34;4971187;28;4431;-68
2023/07/19 11:33:02;;;;;;;;;;;;;;;22.26;50.21;100573.59;4974436;28;4115;-68
2023/07/19 11:35:29;;;;;;;;;;;;;;;22.26;50.41;100582.25;4972117;28;4078;-68
2023/07/19 11:37:56;;;;;;;;;;;;;;;22.28;50.42;100567.91;4973153;28;4561;-68
2023/07/19 11:40:25;;;;;;;;;;;;;;;22.28;50.15;100567.91;4974219;28;4380;-68
2023/07/19 11:42:52;;;;;;;;;;;;;;;22.27;50.16;100572.19;4987130;28;4141;-68
2023/07/19 11:45:23;;;;;;;;;;;;;;;22.27;50.25;100564.28;4975345;28;4301;-68
2023/07/19 11:47:51;;;;;;;;;;;;;;;22.27;50.49;100558.50;4971432;28;5066;-68
2023/07/19 11:50:20;;;;;;;;;;;;;;;22.29;49.99;100560.72;4989224;28;6285;-68
2023/07/19 11:52:47;;;;;;;;;;;;;;;22.29;50.34;100563.63;4970026;28;4018;-68
2023/07/19 11:55:15;;;;;;;;;;;;;;;22.28;50.14;100553.47;4970512;28;4079;-68
2023/07/19 11:57:41;;;;;;;;;;;;;;;22.28;50.47;100556.34;4971476;28;4118;-68
2023/07/19 12:00:08;;;;;;;;;;;;;;;22.28;50.18;100548.44;4974468;28;4057;-68
2023/07/19 12:02:35;;;;;;;;;;;;;;;22.28;50.22;100557.09;4974858;28;4322;-68
2023/07/19 12:05:03;;;;;;;;;;;;;;;22.28;50.43;100554.22;4970322;28;4106;-68
2023/07/19 12:07:29;;;;;;;;;;;;;;;22.29;50.19;100555.69;4970509;28;4385;-68
2023/07/19 12:09:56;;;;;;;;;;;;;;;22.29;50.15;100549.94;4973165;28;4171;-68
2023/07/19 12:12:22;;;;;;;;;;;;;;;22.29;50.34;100547.03;4975281;28;4318;-69
2023/07/19 12:14:49;;;;;;;;;;;;;;;22.30;50.13;100550.66;4974989;28;4154;-68
2023/07/19 12:17:16;;;;;;;;;;;;;;;22.30;50.18;100551.41;4971298;28;4385;-68
2023/07/19 12:19:42;;;;;;;;;;;;;;;22.30;50.09;100544.88;4969903;28;4257;-68
2023/07/19 12:22:09;;;;;;;;;;;;;;;22.31;50.10;100552.13;4977862;28;4870;-68
2023/07/19 12:24:38;;;;;;;;;;;;;;;22.30;50.04;100548.50;4973217;28;4140;-68
2023/07/19 12:27:04;;;;;;;;;;;;;;;22.32;50.28;100544.97;4972200;28;4077;-68
2023/07/19 12:29:31;;;;;;;;;;;;;;;22.31;50.31;100546.34;4971942;28;4090;-69
2023/07/19 12:32:14;;;;;;;;;;;;;;;22.32;50.05;100537.03;4976005;28;4496;-68
2023/07/19 12:34:42;;;;;;;;;;;;;;;22.32;50.11;100536.31;4973954;28;4223;-69
2023/07/19 12:37:09;;;;;;;;;;;;;;;22.32;50.44;100537.03;4974651;28;4078;-68
2023/07/19 12:39:35;;;;;;;;;;;;;;;22.33;50.05;100532.00;4976075;28;5026;-68
2023/07/19 12:42:02;;;;;;;;;;;;;;;22.32;50.21;100524.78;4973287;28;4184;-68
2023/07/19 12:44:28;;;;;;;;;;;;;;;22.33;50.06;100537.78;4969320;28;4133;-68
2023/07/19 12:46:55;;;;;;;;;;;;;;;22.34;50.29;100534.22;4971884;28;3998;-68